Saint Boniface, PA

10:03 PM EDT on August 21, 2014 (GMT -0400)
Johnstown-Cambria County | Change Station
CLOSE
Current Station
Airport
Location: Johnstown,
Elevation: 2283 ft
Nearby Weather Stations

Elev 2283 ft 40.32 °N, 78.83 °W | Updated 9 minutes ago

Overcast
Overcast
68 °F
Feels Like 68 °F
N
7
Wind Variable Wind from WSW

Today
High -- | Low -- °F
--% Chance of Precip.
Yesterday
High -- | Low -- °F
Precip. -- in
6:31 AM 8:03 PM
Waning Crescent, 11% visible
Pressure 30.05 in
Visibility 10.0 miles
Clouds Mostly Cloudy 1200 ft
Mostly Cloudy 1700 ft
Overcast 2700 ft
Dew Point 64 °F
Humidity 87%
Rainfall 0.00 in
Snow Depth Not available.
UV 0 out of 12
Pollen 9.50 out of 12
Air Quality Not available.
Flu Activity Not available.
METAR KJST 220154Z AUTO 25006KT 10SM BKN012 BKN017 OVC027 20/18 A3009 RMK AO2 SLP175 T02000178

More Conditions Fewer Conditions

Pressure 30.05 in
Visibility 10.0 miles
Clouds Mostly Cloudy 1200 ft
Mostly Cloudy 1700 ft
Overcast 2700 ft
Dew Point 64 °F
Humidity 87%
Rainfall 0.00 in
Snow Depth Not available.
UV 0 out of 12
Pollen 9.50 out of 12
Air Quality Not available.
Flu Activity Not available.
METAR KJST 220154Z AUTO 25006KT 10SM BKN012 BKN017 OVC027 20/18 A3009 RMK AO2 SLP175 T02000178

More Conditions Fewer Conditions

10-Day Weather Forecast

Almanac

Astronomy

Aug. 21, 2014 Rise Set
Actual Time 6:31 AM EDT 8:03 PM EDT
Civil Twilight 6:02 AM EDT 8:32 PM EDT
Nautical Twilight 5:27 AM EDT 9:07 PM EDT
Astronomical Twilight 4:50 AM EDT 9:44 PM EDT
Moon 2:59 AM EDT (8/21) 5:31 PM EDT (8/21)
Length of Visible Light 14h 30m
Length of Day
13h 32m
Tomorrow will be 2m 28s shorter.
Waning Crescent, 11% of the Moon is Illuminated
Today
Waning Crescent
Aug 25
New
Sep 2
First Quarter
Sep 8
Full
Sep 15
Last Quarter

Today's Extremes

State Highs State Lows

Community

WunderPhotos

Upload Photos

1,746,107 photos uploaded!

WunderBlogs® & News

Nearby

Snow Depth

Station Depth Elevation
No new snow has been reported.

Earthquake Activity

City Distance Mag. Time & Date
No recent earthquake activity has been reported nearby.
Minimum magnitude displayed is 2.5.

Coastal Water Temperatures

Place Temperature
No Stations Reporting

Nearby Weather Stations